sensor_id;sensor_type;location;lat;lon;timestamp;pressure;altitude;pressure_sealevel;temperature;humidity
1926;BME280;964;42.606;23.588;2024-02-15T00:02:21;94887.78;;;10.06;44.25
1926;BME280;964;42.606;23.588;2024-02-15T00:04:48;94890.94;;;10.23;43.74
1926;BME280;964;42.606;23.588;2024-02-15T00:07:15;94892.28;;;10.61;43.08
1926;BME280;964;42.606;23.588;2024-02-15T00:09:43;94902.28;;;10.52;43.13
1926;BME280;964;42.606;23.588;2024-02-15T00:12:10;94891.78;;;10.27;43.63
1926;BME280;964;42.606;23.588;2024-02-15T00:14:38;94893.25;;;10.53;43.03
1926;BME280;964;42.606;23.588;2024-02-15T00:17:05;94889.75;;;10.80;43.46
1926;BME280;964;42.606;23.588;2024-02-15T00:19:32;94890.28;;;10.42;43.56
1926;BME280;964;42.606;23.588;2024-02-15T00:21:58;94897.69;;;10.64;43.13
1926;BME280;964;42.606;23.588;2024-02-15T00:24:25;94893.34;;;10.72;43.26
1926;BME280;964;42.606;23.588;2024-02-15T00:26:54;94889.16;;;10.71;42.90
1926;BME280;964;42.606;23.588;2024-02-15T00:29:21;94899.00;;;10.70;42.95
1926;BME280;964;42.606;23.588;2024-02-15T00:31:48;94903.69;;;10.33;44.07
1926;BME280;964;42.606;23.588;2024-02-15T00:34:15;94902.88;;;10.45;43.58
1926;BME280;964;42.606;23.588;2024-02-15T00:36:42;94895.31;;;10.59;43.86
1926;BME280;964;42.606;23.588;2024-02-15T00:39:10;94897.22;;;10.47;43.80
1926;BME280;964;42.606;23.588;2024-02-15T00:41:39;94892.66;;;10.75;43.29
1926;BME280;964;42.606;23.588;2024-02-15T00:44:09;94890.34;;;10.73;43.17
1926;BME280;964;42.606;23.588;2024-02-15T00:46:36;94895.38;;;10.19;44.07
1926;BME280;964;42.606;23.588;2024-02-15T00:49:03;94906.78;;;10.36;44.49
1926;BME280;964;42.606;23.588;2024-02-15T00:51:31;94896.41;;;10.58;43.29
1926;BME280;964;42.606;23.588;2024-02-15T00:53:59;94898.59;;;10.41;43.81
1926;BME280;964;42.606;23.588;2024-02-15T00:56:26;94898.31;;;10.30;44.27
1926;BME280;964;42.606;23.588;2024-02-15T00:58:53;94894.03;;;10.13;44.17
1926;BME280;964;42.606;23.588;2024-02-15T01:01:21;94897.03;;;10.40;43.64
1926;BME280;964;42.606;23.588;2024-02-15T01:03:48;94895.91;;;10.53;43.23
1926;BME280;964;42.606;23.588;2024-02-15T01:06:14;94897.41;;;10.54;43.78
1926;BME280;964;42.606;23.588;2024-02-15T01:08:41;94892.34;;;10.33;44.19
1926;BME280;964;42.606;23.588;2024-02-15T01:11:07;94897.09;;;10.27;44.00
1926;BME280;964;42.606;23.588;2024-02-15T01:13:35;94899.09;;;10.30;43.63
1926;BME280;964;42.606;23.588;2024-02-15T01:16:03;94891.06;;;10.43;43.82
1926;BME280;964;42.606;23.588;2024-02-15T01:18:31;94896.25;;;10.67;43.75
1926;BME280;964;42.606;23.588;2024-02-15T01:20:58;94894.94;;;10.45;43.58
1926;BME280;964;42.606;23.588;2024-02-15T01:23:25;94886.84;;;10.26;43.83
1926;BME280;964;42.606;23.588;2024-02-15T01:25:52;94887.09;;;10.80;43.09
1926;BME280;964;42.606;23.588;2024-02-15T01:28:19;94892.63;;;10.44;43.68
1926;BME280;964;42.606;23.588;2024-02-15T01:30:45;94881.47;;;10.10;43.89
1926;BME280;964;42.606;23.588;2024-02-15T01:33:12;94893.03;;;10.46;43.19
1926;BME280;964;42.606;23.588;2024-02-15T01:35:40;94877.94;;;10.62;43.14
1926;BME280;964;42.606;23.588;2024-02-15T01:38:07;94882.69;;;10.41;43.50
1926;BME280;964;42.606;23.588;2024-02-15T01:40:34;94881.56;;;10.26;43.73
1926;BME280;964;42.606;23.588;2024-02-15T01:43:01;94885.78;;;10.15;43.97
1926;BME280;964;42.606;23.588;2024-02-15T01:45:28;94887.09;;;9.81;44.77
1926;BME280;964;42.606;23.588;2024-02-15T01:47:55;94885.88;;;10.18;44.42
1926;BME280;964;42.606;23.588;2024-02-15T01:50:22;94889.50;;;9.86;44.95
1926;BME280;964;42.606;23.588;2024-02-15T01:52:53;94886.31;;;10.64;43.70
1926;BME280;964;42.606;23.588;2024-02-15T01:55:22;94881.41;;;10.35;44.11
1926;BME280;964;42.606;23.588;2024-02-15T01:57:49;94882.16;;;10.19;43.85
1926;BME280;964;42.606;23.588;2024-02-15T02:00:18;94885.22;;;9.69;44.74
1926;BME280;964;42.606;23.588;2024-02-15T02:02:45;94895.16;;;10.12;43.93
1926;BME280;964;42.606;23.588;2024-02-15T02:05:12;94895.63;;;10.14;43.79
1926;BME280;964;42.606;23.588;2024-02-15T02:07:39;94893.91;;;10.50;43.63
1926;BME280;964;42.606;23.588;2024-02-15T02:10:08;94900.06;;;10.38;43.22
1926;BME280;964;42.606;23.588;2024-02-15T02:12:36;94900.94;;;10.58;43.06
1926;BME280;964;42.606;23.588;2024-02-15T02:15:06;94906.38;;;10.21;43.49
1926;BME280;964;42.606;23.588;2024-02-15T02:17:33;94893.97;;;10.38;43.11
1926;BME280;964;42.606;23.588;2024-02-15T02:20:00;94900.97;;;10.46;43.47
1926;BME280;964;42.606;23.588;2024-02-15T02:22:33;94899.81;;;10.59;43.29
1926;BME280;964;42.606;23.588;2024-02-15T02:25:05;94907.31;;;10.41;43.43
1926;BME280;964;42.606;23.588;2024-02-15T02:27:34;94915.63;;;10.27;43.35
1926;BME280;964;42.606;23.588;2024-02-15T02:30:03;94914.22;;;10.89;42.71
1926;BME280;964;42.606;23.588;2024-02-15T02:32:32;94923.88;;;10.81;42.81
1926;BME280;964;42.606;23.588;2024-02-15T02:34:59;94916.00;;;11.01;42.60
1926;BME280;964;42.606;23.588;2024-02-15T02:37:26;94922.66;;;10.63;43.10
1926;BME280;964;42.606;23.588;2024-02-15T02:39:53;94920.09;;;10.23;43.51
1926;BME280;964;42.606;23.588;2024-02-15T02:42:22;94922.66;;;10.36;44.05
1926;BME280;964;42.606;23.588;2024-02-15T02:44:48;94928.94;;;9.91;44.38
1926;BME280;964;42.606;23.588;2024-02-15T02:47:15;94923.91;;;10.54;43.74
1926;BME280;964;42.606;23.588;2024-02-15T02:49:43;94923.72;;;10.47;43.80
1926;BME280;964;42.606;23.588;2024-02-15T02:52:09;94926.13;;;10.24;44.15
1926;BME280;964;42.606;23.588;2024-02-15T02:54:36;94922.44;;;10.41;44.03
1926;BME280;964;42.606;23.588;2024-02-15T02:57:03;94921.69;;;10.56;43.35
1926;BME280;964;42.606;23.588;2024-02-15T02:59:34;94927.53;;;10.77;43.10
1926;BME280;964;42.606;23.588;2024-02-15T03:02:01;94924.63;;;10.82;43.17
1926;BME280;964;42.606;23.588;2024-02-15T03:04:29;94925.13;;;10.72;43.59
1926;BME280;964;42.606;23.588;2024-02-15T03:06:55;94924.38;;;10.71;43.13
1926;BME280;964;42.606;23.588;2024-02-15T03:09:23;94924.22;;;10.37;43.49
1926;BME280;964;42.606;23.588;2024-02-15T03:11:52;94932.63;;;9.74;44.04
1926;BME280;964;42.606;23.588;2024-02-15T03:14:19;94924.06;;;10.45;43.30
1926;BME280;964;42.606;23.588;2024-02-15T03:16:47;94931.56;;;10.03;43.66
1926;BME280;964;42.606;23.588;2024-02-15T03:19:14;94934.53;;;10.26;43.97
1926;BME280;964;42.606;23.588;2024-02-15T03:21:40;94931.09;;;10.13;44.11
1926;BME280;964;42.606;23.588;2024-02-15T03:24:11;94934.66;;;10.17;44.12
1926;BME280;964;42.606;23.588;2024-02-15T03:26:37;94930.56;;;10.48;43.65
1926;BME280;964;42.606;23.588;2024-02-15T03:29:06;94934.69;;;10.05;44.01
1926;BME280;964;42.606;23.588;2024-02-15T03:31:33;94927.38;;;10.14;44.18
1926;BME280;964;42.606;23.588;2024-02-15T03:34:02;94928.31;;;9.94;44.48
1926;BME280;964;42.606;23.588;2024-02-15T03:36:29;94938.34;;;9.76;44.95
1926;BME280;964;42.606;23.588;2024-02-15T03:38:56;94936.63;;;10.20;44.13
1926;BME280;964;42.606;23.588;2024-02-15T03:41:22;94941.38;;;10.43;43.85
1926;BME280;964;42.606;23.588;2024-02-15T03:43:49;94951.28;;;10.30;43.94
1926;BME280;964;42.606;23.588;2024-02-15T03:46:16;94943.25;;;10.42;43.26
1926;BME280;964;42.606;23.588;2024-02-15T03:48:43;94945.00;;;10.10;43.93
1926;BME280;964;42.606;23.588;2024-02-15T03:51:16;94939.56;;;10.59;43.82
1926;BME280;964;42.606;23.588;2024-02-15T03:53:43;94947.75;;;10.26;43.93
1926;BME280;964;42.606;23.588;2024-02-15T03:56:09;94945.59;;;10.44;43.53
1926;BME280;964;42.606;23.588;2024-02-15T03:58:37;94950.31;;;10.22;44.09
1926;BME280;964;42.606;23.588;2024-02-15T04:01:04;94952.66;;;10.00;44.44
1926;BME280;964;42.606;23.588;2024-02-15T04:03:35;94947.72;;;9.86;44.99
1926;BME280;964;42.606;23.588;2024-02-15T04:06:02;94944.59;;;10.08;44.52
1926;BME280;964;42.606;23.588;2024-02-15T04:08:31;94952.13;;;9.94;44.28
1926;BME280;964;42.606;23.588;2024-02-15T04:10:57;94951.66;;;10.04;44.26
1926;BME280;964;42.606;23.588;2024-02-15T04:13:24;94949.47;;;9.94;44.04
1926;BME280;964;42.606;23.588;2024-02-15T04:15:51;94956.97;;;10.44;43.54
1926;BME280;964;42.606;23.588;2024-02-15T04:18:18;94951.38;;;10.33;43.89
1926;BME280;964;42.606;23.588;2024-02-15T04:20:45;94962.72;;;9.82;44.34
1926;BME280;964;42.606;23.588;2024-02-15T04:23:14;94961.06;;;9.90;44.32
1926;BME280;964;42.606;23.588;2024-02-15T04:25:42;94962.97;;;9.53;44.82
1926;BME280;964;42.606;23.588;2024-02-15T04:28:09;94963.41;;;9.55;44.69
1926;BME280;964;42.606;23.588;2024-02-15T04:30:36;94958.56;;;9.69;45.02
1926;BME280;964;42.606;23.588;2024-02-15T04:33:06;94958.56;;;9.57;45.30
1926;BME280;964;42.606;23.588;2024-02-15T04:35:33;94952.59;;;9.72;44.94
1926;BME280;964;42.606;23.588;2024-02-15T04:38:01;94958.00;;;9.75;45.41
1926;BME280;964;42.606;23.588;2024-02-15T04:40:29;94956.97;;;9.80;45.12
1926;BME280;964;42.606;23.588;2024-02-15T04:42:57;94952.03;;;9.66;45.03
1926;BME280;964;42.606;23.588;2024-02-15T04:45:24;94963.97;;;10.24;44.36
1926;BME280;964;42.606;23.588;2024-02-15T04:47:51;94968.22;;;9.89;45.04
1926;BME280;964;42.606;23.588;2024-02-15T04:50:19;94970.34;;;9.83;44.48
1926;BME280;964;42.606;23.588;2024-02-15T04:52:46;94972.44;;;9.78;44.90
1926;BME280;964;42.606;23.588;2024-02-15T04:55:15;94974.59;;;10.00;44.42
1926;BME280;964;42.606;23.588;2024-02-15T04:57:43;94972.63;;;9.85;44.76
1926;BME280;964;42.606;23.588;2024-02-15T05:00:13;94983.25;;;9.61;45.02
1926;BME280;964;42.606;23.588;2024-02-15T05:02:40;94985.88;;;9.49;45.40
1926;BME280;964;42.606;23.588;2024-02-15T05:05:10;94983.00;;;9.78;44.65
1926;BME280;964;42.606;23.588;2024-02-15T05:07:38;94980.38;;;9.42;45.66
1926;BME280;964;42.606;23.588;2024-02-15T05:10:06;94983.47;;;9.56;45.54
1926;BME280;964;42.606;23.588;2024-02-15T05:12:34;94977.97;;;9.61;45.15
1926;BME280;964;42.606;23.588;2024-02-15T05:15:01;94976.06;;;9.73;45.26
1926;BME280;964;42.606;23.588;2024-02-15T05:17:37;94988.31;;;9.90;44.84
1926;BME280;964;42.606;23.588;2024-02-15T05:20:07;94978.56;;;10.18;44.14
1926;BME280;964;42.606;23.588;2024-02-15T05:22:38;94996.22;;;10.14;44.46
1926;BME280;964;42.606;23.588;2024-02-15T05:25:06;94995.53;;;10.29;44.24
1926;BME280;964;42.606;23.588;2024-02-15T05:27:34;95013.22;;;10.01;44.59
1926;BME280;964;42.606;23.588;2024-02-15T05:30:02;94997.75;;;9.91;44.38
1926;BME280;964;42.606;23.588;2024-02-15T05:32:33;95006.56;;;10.07;45.25
1926;BME280;964;42.606;23.588;2024-02-15T05:35:09;95002.63;;;10.01;44.52
1926;BME280;964;42.606;23.588;2024-02-15T05:37:37;95010.03;;;9.83;45.05
1926;BME280;964;42.606;23.588;2024-02-15T05:40:04;95009.78;;;10.01;44.71
1926;BME280;964;42.606;23.588;2024-02-15T05:42:32;95016.06;;;10.08;44.56
1926;BME280;964;42.606;23.588;2024-02-15T05:45:29;95005.13;;;10.34;44.08
1926;BME280;964;42.606;23.588;2024-02-15T05:48:05;95018.94;;;10.03;44.59
1926;BME280;964;42.606;23.588;2024-02-15T05:50:39;95018.28;;;9.94;44.68
1926;BME280;964;42.606;23.588;2024-02-15T05:53:06;95011.22;;;10.22;44.24
1926;BME280;964;42.606;23.588;2024-02-15T05:55:33;95019.25;;;10.26;43.79
1926;BME280;964;42.606;23.588;2024-02-15T05:58:02;95018.47;;;10.25;43.93
1926;BME280;964;42.606;23.588;2024-02-15T06:00:29;95018.28;;;10.18;43.93
1926;BME280;964;42.606;23.588;2024-02-15T06:02:56;95018.47;;;10.25;44.17
1926;BME280;964;42.606;23.588;2024-02-15T06:05:23;95033.69;;;10.28;43.79
1926;BME280;964;42.606;23.588;2024-02-15T06:07:51;95038.78;;;9.73;44.23
1926;BME280;964;42.606;23.588;2024-02-15T06:10:18;95035.91;;;10.02;44.47
1926;BME280;964;42.606;23.588;2024-02-15T06:12:45;95042.53;;;9.96;44.47
1926;BME280;964;42.606;23.588;2024-02-15T06:15:11;95037.00;;;10.13;44.11
1926;BME280;964;42.606;23.588;2024-02-15T06:17:41;95046.06;;;10.00;43.93
1926;BME280;964;42.606;23.588;2024-02-15T06:20:12;95047.63;;;10.01;44.39
1926;BME280;964;42.606;23.588;2024-02-15T06:22:40;95046.94;;;10.16;44.51
1926;BME280;964;42.606;23.588;2024-02-15T06:25:09;95048.75;;;9.76;44.88
1926;BME280;964;42.606;23.588;2024-02-15T06:27:37;95046.50;;;10.02;44.61
1926;BME280;964;42.606;23.588;2024-02-15T06:30:08;95054.00;;;9.88;44.82
1926;BME280;964;42.606;23.588;2024-02-15T06:32:52;95048.88;;;10.56;43.69
1926;BME280;964;42.606;23.588;2024-02-15T06:35:37;95051.84;;;10.82;43.07
1926;BME280;964;42.606;23.588;2024-02-15T06:38:21;95056.97;;;10.75;43.30
1926;BME280;964;42.606;23.588;2024-02-15T06:41:06;95063.19;;;10.95;43.01
1926;BME280;964;42.606;23.588;2024-02-15T06:43:34;95055.34;;;10.70;42.88
1926;BME280;964;42.606;23.588;2024-02-15T06:46:01;95051.50;;;11.11;41.96
1926;BME280;964;42.606;23.588;2024-02-15T06:48:29;95045.53;;;10.87;42.33
1926;BME280;964;42.606;23.588;2024-02-15T06:50:56;95056.16;;;10.59;42.71
1926;BME280;964;42.606;23.588;2024-02-15T06:53:23;95062.13;;;10.44;42.97
1926;BME280;964;42.606;23.588;2024-02-15T06:55:50;95059.91;;;10.58;43.21
1926;BME280;964;42.606;23.588;2024-02-15T06:58:19;95053.69;;;10.66;42.97
1926;BME280;964;42.606;23.588;2024-02-15T07:00:47;95065.56;;;10.84;43.16
1926;BME280;964;42.606;23.588;2024-02-15T07:03:15;95058.97;;;10.78;42.87
1926;BME280;964;42.606;23.588;2024-02-15T07:05:43;95063.19;;;11.38;41.70
1926;BME280;964;42.606;23.588;2024-02-15T07:08:10;95057.03;;;11.34;42.45
1926;BME280;964;42.606;23.588;2024-02-15T07:10:38;95055.69;;;11.12;42.81
1926;BME280;964;42.606;23.588;2024-02-15T07:13:05;95059.03;;;11.09;42.11
1926;BME280;964;42.606;23.588;2024-02-15T07:15:34;95053.06;;;11.12;42.45
1926;BME280;964;42.606;23.588;2024-02-15T07:18:04;95054.97;;;11.27;41.53
1926;BME280;964;42.606;23.588;2024-02-15T07:20:31;95059.84;;;11.25;41.84
1926;BME280;964;42.606;23.588;2024-02-15T07:22:58;95070.38;;;10.94;42.18
1926;BME280;964;42.606;23.588;2024-02-15T07:25:25;95059.16;;;11.28;41.66
1926;BME280;964;42.606;23.588;2024-02-15T07:27:52;95062.25;;;11.30;40.83
1926;BME280;964;42.606;23.588;2024-02-15T07:30:19;95061.72;;;11.41;41.28
1926;BME280;964;42.606;23.588;2024-02-15T07:32:48;95052.31;;;12.21;40.06
1926;BME280;964;42.606;23.588;2024-02-15T07:35:15;95060.03;;;11.64;40.34
1926;BME280;964;42.606;23.588;2024-02-15T07:37:51;95046.72;;;12.81;38.43
1926;BME280;964;42.606;23.588;2024-02-15T07:40:19;95050.69;;;12.90;38.01
1926;BME280;964;42.606;23.588;2024-02-15T07:42:47;95041.06;;;13.66;36.81
1926;BME280;964;42.606;23.588;2024-02-15T07:45:14;95035.03;;;13.95;36.08
1926;BME280;964;42.606;23.588;2024-02-15T07:47:41;95021.56;;;15.74;34.34
1926;BME280;964;42.606;23.588;2024-02-15T07:50:09;95024.09;;;16.69;32.59
1926;BME280;964;42.606;23.588;2024-02-15T07:52:38;95016.69;;;18.20;30.31
1926;BME280;964;42.606;23.588;2024-02-15T07:55:05;95012.00;;;18.73;29.40
1926;BME280;964;42.606;23.588;2024-02-15T07:57:34;95000.66;;;19.79;28.17
1926;BME280;964;42.606;23.588;2024-02-15T08:00:01;95005.56;;;19.33;27.96
1926;BME280;964;42.606;23.588;2024-02-15T08:02:28;95002.59;;;20.23;27.57
1926;BME280;964;42.606;23.588;2024-02-15T08:04:55;94998.34;;;20.97;26.71
1926;BME280;964;42.606;23.588;2024-02-15T08:07:23;95008.50;;;19.60;27.71
1926;BME280;964;42.606;23.588;2024-02-15T08:09:50;95009.22;;;19.67;27.57
1926;BME280;964;42.606;23.588;2024-02-15T08:12:18;95009.16;;;19.74;27.17
1926;BME280;964;42.606;23.588;2024-02-15T08:14:45;95000.09;;;20.46;26.79
1926;BME280;964;42.606;23.588;2024-02-15T08:17:12;94998.94;;;21.42;25.90
1926;BME280;964;42.606;23.588;2024-02-15T08:19:40;95001.97;;;21.44;26.24
1926;BME280;964;42.606;23.588;2024-02-15T08:22:07;94998.72;;;21.56;25.37
1926;BME280;964;42.606;23.588;2024-02-15T08:24:36;94985.03;;;22.40;24.99
1926;BME280;964;42.606;23.588;2024-02-15T08:27:03;94979.81;;;22.29;25.10
1926;BME280;964;42.606;23.588;2024-02-15T08:29:30;94981.41;;;22.27;25.15
1926;BME280;964;42.606;23.588;2024-02-15T08:31:57;94982.03;;;22.34;24.67
1926;BME280;964;42.606;23.588;2024-02-15T08:34:24;94982.56;;;22.88;24.03
1926;BME280;964;42.606;23.588;2024-02-15T08:36:51;94986.06;;;22.69;24.53
1926;BME280;964;42.606;23.588;2024-02-15T08:39:18;94977.56;;;22.47;24.02
1926;BME280;964;42.606;23.588;2024-02-15T08:41:50;94984.72;;;22.15;24.23
1926;BME280;964;42.606;23.588;2024-02-15T08:44:18;94979.88;;;23.76;23.00
1926;BME280;964;42.606;23.588;2024-02-15T08:46:47;94972.53;;;23.93;23.13
1926;BME280;964;42.606;23.588;2024-02-15T08:49:14;94985.13;;;24.16;22.69
1926;BME280;964;42.606;23.588;2024-02-15T08:51:40;94974.53;;;24.66;21.79
1926;BME280;964;42.606;23.588;2024-02-15T08:54:07;94977.56;;;24.39;22.26
1926;BME280;964;42.606;23.588;2024-02-15T08:56:35;94980.72;;;23.73;22.44
1926;BME280;964;42.606;23.588;2024-02-15T08:59:03;94983.78;;;24.08;22.72
1926;BME280;964;42.606;23.588;2024-02-15T09:01:30;94988.69;;;23.64;22.94
1926;BME280;964;42.606;23.588;2024-02-15T09:03:57;94977.28;;;24.50;22.39
1926;BME280;964;42.606;23.588;2024-02-15T09:06:24;94984.91;;;24.84;21.68
1926;BME280;964;42.606;23.588;2024-02-15T09:08:51;94980.91;;;23.99;22.47
1926;BME280;964;42.606;23.588;2024-02-15T09:11:18;94987.59;;;23.78;22.77
1926;BME280;964;42.606;23.588;2024-02-15T09:13:45;94987.16;;;23.63;22.34
1926;BME280;964;42.606;23.588;2024-02-15T09:16:13;94983.06;;;24.36;21.81
1926;BME280;964;42.606;23.588;2024-02-15T09:18:40;94982.91;;;25.26;21.09
1926;BME280;964;42.606;23.588;2024-02-15T09:21:10;94977.34;;;26.05;21.22
1926;BME280;964;42.606;23.588;2024-02-15T09:23:37;94981.16;;;25.32;21.43
1926;BME280;964;42.606;23.588;2024-02-15T09:26:04;94982.81;;;25.93;20.91
1926;BME280;964;42.606;23.588;2024-02-15T09:28:31;94976.31;;;25.65;20.86
1926;BME280;964;42.606;23.588;2024-02-15T09:30:58;94970.88;;;25.77;21.22
1926;BME280;964;42.606;23.588;2024-02-15T09:33:28;94961.28;;;26.45;20.40
1926;BME280;964;42.606;23.588;2024-02-15T09:35:55;94969.78;;;25.88;20.81
1926;BME280;964;42.606;23.588;2024-02-15T09:38:22;94967.72;;;25.41;21.30
1926;BME280;964;42.606;23.588;2024-02-15T09:40:50;94971.34;;;25.63;21.27
1926;BME280;964;42.606;23.588;2024-02-15T09:43:17;94967.94;;;25.84;20.72
1926;BME280;964;42.606;23.588;2024-02-15T09:45:44;94964.13;;;25.19;20.90
1926;BME280;964;42.606;23.588;2024-02-15T09:48:11;94968.03;;;26.19;20.85
1926;BME280;964;42.606;23.588;2024-02-15T09:50:41;94946.53;;;26.90;20.02
1926;BME280;964;42.606;23.588;2024-02-15T09:53:12;94943.00;;;27.42;19.66
1926;BME280;964;42.606;23.588;2024-02-15T09:55:40;94948.41;;;26.80;20.20
1926;BME280;964;42.606;23.588;2024-02-15T09:58:09;94949.56;;;26.48;20.71
1926;BME280;964;42.606;23.588;2024-02-15T10:00:37;94944.66;;;27.39;19.80
1926;BME280;964;42.606;23.588;2024-02-15T10:03:06;94949.84;;;26.16;20.45
1926;BME280;964;42.606;23.588;2024-02-15T10:05:33;94953.59;;;25.97;20.51
1926;BME280;964;42.606;23.588;2024-02-15T10:08:02;94942.56;;;25.28;21.18
1926;BME280;964;42.606;23.588;2024-02-15T10:10:30;94939.97;;;26.09;20.55
1926;BME280;964;42.606;23.588;2024-02-15T10:12:59;94936.06;;;25.63;20.86
1926;BME280;964;42.606;23.588;2024-02-15T10:15:34;94938.53;;;25.32;21.43
1926;BME280;964;42.606;23.588;2024-02-15T10:18:02;94925.13;;;26.36;20.85
1926;BME280;964;42.606;23.588;2024-02-15T10:20:30;94928.56;;;25.17;21.26
1926;BME280;964;42.606;23.588;2024-02-15T10:23:11;94928.13;;;24.64;22.07
1926;BME280;964;42.606;23.588;2024-02-15T10:25:39;94926.19;;;24.77;21.74
1926;BME280;964;42.606;23.588;2024-02-15T10:28:07;94921.56;;;25.92;20.71
1926;BME280;964;42.606;23.588;2024-02-15T10:30:35;94919.13;;;25.59;21.30
1926;BME280;964;42.606;23.588;2024-02-15T10:33:02;94917.59;;;26.05;20.80
1926;BME280;964;42.606;23.588;2024-02-15T10:35:30;94910.25;;;24.38;22.18
1926;BME280;964;42.606;23.588;2024-02-15T10:38:05;94906.16;;;24.46;22.45
1926;BME280;964;42.606;23.588;2024-02-15T10:40:35;94901.22;;;25.11;21.76
1926;BME280;964;42.606;23.588;2024-02-15T10:43:03;94909.09;;;24.80;21.80
1926;BME280;964;42.606;23.588;2024-02-15T10:45:30;94900.22;;;25.43;21.30
1926;BME280;964;42.606;23.588;2024-02-15T10:47:57;94906.97;;;25.51;21.13
1926;BME280;964;42.606;23.588;2024-02-15T10:50:24;94891.63;;;26.60;20.40
1926;BME280;964;42.606;23.588;2024-02-15T10:52:54;94886.47;;;27.06;20.05
1926;BME280;964;42.606;23.588;2024-02-15T10:55:30;94898.63;;;25.93;20.85
1926;BME280;964;42.606;23.588;2024-02-15T10:58:06;94910.56;;;24.81;21.88
1926;BME280;964;42.606;23.588;2024-02-15T11:00:33;94898.41;;;26.00;21.10
1926;BME280;964;42.606;23.588;2024-02-15T11:03:03;94881.16;;;26.28;21.00
1926;BME280;964;42.606;23.588;2024-02-15T11:05:32;94886.31;;;25.79;21.01
1926;BME280;964;42.606;23.588;2024-02-15T11:08:03;94892.25;;;24.73;22.23
1926;BME280;964;42.606;23.588;2024-02-15T11:10:32;94884.81;;;25.15;22.20
1926;BME280;964;42.606;23.588;2024-02-15T11:12:59;94892.63;;;24.87;22.52
1926;BME280;964;42.606;23.588;2024-02-15T11:15:42;94882.22;;;25.24;22.16
1926;BME280;964;42.606;23.588;2024-02-15T11:18:43;94877.03;;;25.89;21.47
1926;BME280;964;42.606;23.588;2024-02-15T11:21:11;94867.56;;;25.94;21.74
1926;BME280;964;42.606;23.588;2024-02-15T11:23:38;94876.91;;;25.93;21.23
1926;BME280;964;42.606;23.588;2024-02-15T11:26:08;94879.50;;;24.45;22.45
1926;BME280;964;42.606;23.588;2024-02-15T11:28:43;94868.19;;;25.51;21.94
1926;BME280;964;42.606;23.588;2024-02-15T11:34:45;94867.31;;;24.65;22.56
1926;BME280;964;42.606;23.588;2024-02-15T11:37:49;94863.69;;;24.84;22.29
1926;BME280;964;42.606;23.588;2024-02-15T11:40:19;94861.81;;;25.57;22.38
1926;BME280;964;42.606;23.588;2024-02-15T11:42:48;94858.88;;;25.39;21.87
1926;BME280;964;42.606;23.588;2024-02-15T11:45:15;94850.25;;;25.78;21.78
1926;BME280;964;42.606;23.588;2024-02-15T11:47:47;94868.19;;;22.75;24.22
1926;BME280;964;42.606;23.588;2024-02-15T11:50:18;94877.00;;;21.04;25.78
1926;BME280;964;42.606;23.588;2024-02-15T11:52:46;94871.94;;;22.42;25.33
1926;BME280;964;42.606;23.588;2024-02-15T11:55:17;94857.72;;;24.35;23.54
1926;BME280;964;42.606;23.588;2024-02-15T11:57:54;94858.41;;;24.23;23.20
1926;BME280;964;42.606;23.588;2024-02-15T12:00:28;94859.44;;;24.83;22.78
1926;BME280;964;42.606;23.588;2024-02-15T12:03:14;94852.38;;;25.11;23.00
1926;BME280;964;42.606;23.588;2024-02-15T12:06:00;94853.63;;;24.56;23.38
1926;BME280;964;42.606;23.588;2024-02-15T12:08:45;94841.97;;;25.82;21.47
1926;BME280;964;42.606;23.588;2024-02-15T12:11:29;94846.31;;;25.20;22.76
1926;BME280;964;42.606;23.588;2024-02-15T12:14:14;94847.16;;;25.29;22.50
1926;BME280;964;42.606;23.588;2024-02-15T12:17:00;94830.66;;;25.83;22.01
1926;BME280;964;42.606;23.588;2024-02-15T12:19:44;94845.66;;;23.79;24.30
1926;BME280;964;42.606;23.588;2024-02-15T12:22:13;94839.16;;;25.13;23.25
1926;BME280;964;42.606;23.588;2024-02-15T12:24:40;94831.19;;;25.44;22.35
1926;BME280;964;42.606;23.588;2024-02-15T12:27:07;94844.13;;;24.77;23.08
1926;BME280;964;42.606;23.588;2024-02-15T12:29:33;94847.97;;;23.16;24.71
1926;BME280;964;42.606;23.588;2024-02-15T12:32:00;94845.78;;;23.27;24.28
1926;BME280;964;42.606;23.588;2024-02-15T12:34:29;94837.75;;;24.83;23.10
1926;BME280;964;42.606;23.588;2024-02-15T12:37:05;94830.34;;;25.22;23.06
1926;BME280;964;42.606;23.588;2024-02-15T12:39:35;94836.72;;;24.11;23.84
1926;BME280;964;42.606;23.588;2024-02-15T12:42:06;94847.34;;;22.56;25.04
1926;BME280;964;42.606;23.588;2024-02-15T12:44:34;94850.41;;;22.19;25.86
1926;BME280;964;42.606;23.588;2024-02-15T12:47:01;94844.50;;;22.08;25.75
1926;BME280;964;42.606;23.588;2024-02-15T12:49:29;94841.06;;;22.23;25.71
1926;BME280;964;42.606;23.588;2024-02-15T12:52:38;94832.19;;;23.47;24.19
1926;BME280;964;42.606;23.588;2024-02-15T12:55:10;94839.13;;;24.75;23.02
1926;BME280;964;42.606;23.588;2024-02-15T12:57:38;94830.88;;;25.42;23.09
1926;BME280;964;42.606;23.588;2024-02-15T13:00:08;94832.72;;;25.45;22.35
1926;BME280;964;42.606;23.588;2024-02-15T13:02:40;94850.28;;;24.77;22.43
1926;BME280;964;42.606;23.588;2024-02-15T13:05:07;94844.66;;;22.76;24.20
1926;BME280;964;42.606;23.588;2024-02-15T13:07:35;94852.28;;;21.79;26.69
1926;BME280;964;42.606;23.588;2024-02-15T13:10:01;94867.41;;;20.76;27.33
1926;BME280;964;42.606;23.588;2024-02-15T13:12:30;94863.31;;;19.63;29.17
1926;BME280;964;42.606;23.588;2024-02-15T13:14:59;94854.69;;;19.79;29.22
1926;BME280;964;42.606;23.588;2024-02-15T13:17:26;94868.03;;;19.00;29.42
1926;BME280;964;42.606;23.588;2024-02-15T13:19:52;94871.91;;;18.92;29.95
1926;BME280;964;42.606;23.588;2024-02-15T13:22:27;94868.88;;;19.35;29.84
1926;BME280;964;42.606;23.588;2024-02-15T13:24:54;94857.13;;;19.66;29.41
1926;BME280;964;42.606;23.588;2024-02-15T13:27:21;94867.28;;;19.48;29.82
1926;BME280;964;42.606;23.588;2024-02-15T13:29:50;94871.53;;;18.90;30.26
1926;BME280;964;42.606;23.588;2024-02-15T13:32:18;94875.03;;;18.80;30.71
1926;BME280;964;42.606;23.588;2024-02-15T13:34:46;94876.78;;;18.39;30.62
1926;BME280;964;42.606;23.588;2024-02-15T13:37:17;94879.31;;;18.71;30.06